sensor_id;sensor_type;location;lat;lon;timestamp;noise_LAeq;noise_LA_min;noise_LA_max;noise_LA01;noise_LA95
1754;Laerm;58380;48.312;9.246;2022-09-09T06:40:07;46.89;34.84;57.62;;
1754;Laerm;58380;48.312;9.246;2022-09-09T06:42:33;46.15;33.82;57.10;;
1754;Laerm;58380;48.312;9.246;2022-09-09T06:44:59;44.41;33.33;55.27;;
1754;Laerm;58380;48.312;9.246;2022-09-09T06:47:24;44.47;33.74;59.18;;
1754;Laerm;58380;48.312;9.246;2022-09-09T06:49:49;44.79;38.35;61.83;;
1754;Laerm;58380;48.312;9.246;2022-09-09T06:52:15;46.94;37.68;53.93;;
1754;Laerm;58380;48.312;9.246;2022-09-09T06:54:43;48.49;36.38;59.61;;
1754;Laerm;58380;48.312;9.246;2022-09-09T06:57:10;47.56;37.86;59.72;;
1754;Laerm;58380;48.312;9.246;2022-09-09T06:59:36;47.09;36.56;62.73;;
1754;Laerm;58380;48.312;9.246;2022-09-09T07:02:01;45.71;37.37;53.84;;
1754;Laerm;58380;48.312;9.246;2022-09-09T07:04:27;46.54;36.53;59.62;;
1754;Laerm;58380;48.312;9.246;2022-09-09T07:06:52;52.88;37.05;72.60;;
1754;Laerm;58380;48.312;9.246;2022-09-09T07:09:18;48.88;37.44;72.81;;
1754;Laerm;58380;48.312;9.246;2022-09-09T07:11:50;44.67;35.69;66.29;;
1754;Laerm;58380;48.312;9.246;2022-09-09T07:14:18;44.27;36.20;55.23;;
1754;Laerm;58380;48.312;9.246;2022-09-09T07:16:45;43.40;35.51;53.19;;
1754;Laerm;58380;48.312;9.246;2022-09-09T07:19:12;46.36;35.78;56.60;;
1754;Laerm;58380;48.312;9.246;2022-09-09T07:21:39;47.25;38.04;58.11;;
1754;Laerm;58380;48.312;9.246;2022-09-09T07:24:08;43.76;36.45;60.15;;
1754;Laerm;58380;48.312;9.246;2022-09-09T07:26:36;46.49;35.32;60.78;;
1754;Laerm;58380;48.312;9.246;2022-09-09T07:29:03;49.47;36.20;74.54;;
1754;Laerm;58380;48.312;9.246;2022-09-09T07:31:32;46.09;36.11;73.03;;
1754;Laerm;58380;48.312;9.246;2022-09-09T07:33:59;48.15;35.12;59.05;;
1754;Laerm;58380;48.312;9.246;2022-09-09T07:36:30;46.95;35.02;65.54;;
1754;Laerm;58380;48.312;9.246;2022-09-09T07:38:59;49.37;37.98;69.91;;
1754;Laerm;58380;48.312;9.246;2022-09-09T07:41:32;52.81;36.18;68.81;;
1754;Laerm;58380;48.312;9.246;2022-09-09T07:44:04;47.50;36.34;58.85;;
1754;Laerm;58380;48.312;9.246;2022-09-09T07:46:29;47.45;36.47;62.53;;
1754;Laerm;58380;48.312;9.246;2022-09-09T07:48:56;47.18;38.18;61.30;;
1754;Laerm;58380;48.312;9.246;2022-09-09T07:51:27;49.08;35.44;64.73;;
1754;Laerm;58380;48.312;9.246;2022-09-09T07:54:04;46.68;36.41;58.03;;
1754;Laerm;58380;48.312;9.246;2022-09-09T07:56:31;43.56;33.75;56.62;;
1754;Laerm;58380;48.312;9.246;2022-09-09T07:58:58;45.52;37.38;61.03;;
1754;Laerm;58380;48.312;9.246;2022-09-09T08:01:39;47.06;38.99;60.27;;
1754;Laerm;58380;48.312;9.246;2022-09-09T08:04:18;43.95;35.95;52.24;;
1754;Laerm;58380;48.312;9.246;2022-09-09T08:06:51;47.17;37.49;56.86;;
1754;Laerm;58380;48.312;9.246;2022-09-09T08:09:18;42.27;35.23;50.55;;
1754;Laerm;58380;48.312;9.246;2022-09-09T08:11:44;42.62;35.81;49.15;;
1754;Laerm;58380;48.312;9.246;2022-09-09T08:14:11;46.97;39.05;59.15;;
1754;Laerm;58380;48.312;9.246;2022-09-09T08:16:42;45.51;35.09;57.12;;
1754;Laerm;58380;48.312;9.246;2022-09-09T08:19:08;45.74;36.34;54.87;;
1754;Laerm;58380;48.312;9.246;2022-09-09T08:21:36;47.16;37.23;57.27;;
1754;Laerm;58380;48.312;9.246;2022-09-09T08:24:04;45.44;34.21;56.71;;
1754;Laerm;58380;48.312;9.246;2022-09-09T08:26:33;48.26;37.50;57.10;;
1754;Laerm;58380;48.312;9.246;2022-09-09T08:29:01;46.85;36.35;59.03;;
1754;Laerm;58380;48.312;9.246;2022-09-09T08:31:31;45.34;34.43;58.82;;
1754;Laerm;58380;48.312;9.246;2022-09-09T08:33:59;44.92;35.78;53.32;;
1754;Laerm;58380;48.312;9.246;2022-09-09T08:36:28;42.46;33.48;57.05;;
1754;Laerm;58380;48.312;9.246;2022-09-09T08:38:57;46.47;35.00;56.53;;
1754;Laerm;58380;48.312;9.246;2022-09-09T08:53:11;45.53;34.44;61.50;;
1754;Laerm;58380;48.312;9.246;2022-09-09T08:55:49;48.35;39.75;59.49;;
1754;Laerm;58380;48.312;9.246;2022-09-09T08:58:27;45.27;36.29;59.57;;
1754;Laerm;58380;48.312;9.246;2022-09-09T09:09:04;45.87;35.72;56.91;;
1754;Laerm;58380;48.312;9.246;2022-09-09T09:11:40;42.71;34.12;50.96;;
1754;Laerm;58380;48.312;9.246;2022-09-09T09:14:20;45.41;36.96;58.54;;
1754;Laerm;58380;48.312;9.246;2022-09-09T09:16:56;44.26;35.31;54.91;;
1754;Laerm;58380;48.312;9.246;2022-09-09T09:19:23;41.90;34.23;59.73;;
1754;Laerm;58380;48.312;9.246;2022-09-09T09:22:02;47.73;35.47;60.12;;
1754;Laerm;58380;48.312;9.246;2022-09-09T09:27:15;45.08;34.97;59.32;;
1754;Laerm;58380;48.312;9.246;2022-09-09T09:29:44;54.43;36.43;76.60;;
1754;Laerm;58380;48.312;9.246;2022-09-09T09:32:18;43.77;35.40;53.37;;
1754;Laerm;58380;48.312;9.246;2022-09-09T09:34:56;44.88;34.76;54.39;;
1754;Laerm;58380;48.312;9.246;2022-09-09T09:37:32;52.83;37.06;69.83;;
1754;Laerm;58380;48.312;9.246;2022-09-09T09:40:19;47.39;37.07;59.33;;
1754;Laerm;58380;48.312;9.246;2022-09-09T09:42:59;44.59;34.44;57.76;;
1754;Laerm;58380;48.312;9.246;2022-09-09T09:45:44;43.84;35.48;52.31;;
1754;Laerm;58380;48.312;9.246;2022-09-09T09:48:13;42.30;34.03;56.29;;
1754;Laerm;58380;48.312;9.246;2022-09-09T09:50:59;43.91;33.75;55.71;;
1754;Laerm;58380;48.312;9.246;2022-09-09T09:53:29;43.67;37.07;57.24;;
1754;Laerm;58380;48.312;9.246;2022-09-09T09:56:00;44.21;36.10;58.31;;
1754;Laerm;58380;48.312;9.246;2022-09-09T09:58:49;41.95;35.39;50.99;;
1754;Laerm;58380;48.312;9.246;2022-09-09T10:01:34;43.74;36.28;53.41;;
1754;Laerm;58380;48.312;9.246;2022-09-09T10:04:14;45.72;37.48;55.44;;
1754;Laerm;58380;48.312;9.246;2022-09-09T10:06:41;46.28;36.65;62.07;;
1754;Laerm;58380;48.312;9.246;2022-09-09T10:09:30;46.32;37.62;63.18;;
1754;Laerm;58380;48.312;9.246;2022-09-09T10:21:03;43.83;36.27;55.60;;
1754;Laerm;58380;48.312;9.246;2022-09-09T10:26:41;46.34;40.64;56.92;;
1754;Laerm;58380;48.312;9.246;2022-09-09T10:32:33;46.89;39.40;58.53;;
1754;Laerm;58380;48.312;9.246;2022-09-09T10:35:17;45.04;39.79;60.47;;
1754;Laerm;58380;48.312;9.246;2022-09-09T10:40:32;43.80;35.40;55.78;;
1754;Laerm;58380;48.312;9.246;2022-09-09T10:43:50;44.96;36.06;55.53;;
1754;Laerm;58380;48.312;9.246;2022-09-09T10:47:05;45.44;36.73;59.23;;
1754;Laerm;58380;48.312;9.246;2022-09-09T10:50:18;44.49;34.55;54.67;;
1754;Laerm;58380;48.312;9.246;2022-09-09T10:53:07;44.98;36.10;57.87;;
1754;Laerm;58380;48.312;9.246;2022-09-09T10:55:50;43.65;35.93;57.27;;
1754;Laerm;58380;48.312;9.246;2022-09-09T10:58:28;43.68;36.85;52.76;;
1754;Laerm;58380;48.312;9.246;2022-09-09T11:01:01;45.80;36.91;57.16;;
1754;Laerm;58380;48.312;9.246;2022-09-09T11:03:29;44.61;39.07;55.91;;
1754;Laerm;58380;48.312;9.246;2022-09-09T11:06:06;45.61;35.81;59.83;;
1754;Laerm;58380;48.312;9.246;2022-09-09T11:08:39;44.55;39.54;52.02;;
1754;Laerm;58380;48.312;9.246;2022-09-09T11:11:14;44.04;37.10;54.74;;
1754;Laerm;58380;48.312;9.246;2022-09-09T11:13:57;44.68;38.34;54.50;;
1754;Laerm;58380;48.312;9.246;2022-09-09T11:16:40;45.94;38.10;62.90;;
1754;Laerm;58380;48.312;9.246;2022-09-09T11:21:55;45.15;40.57;55.33;;
1754;Laerm;58380;48.312;9.246;2022-09-09T11:29:46;45.22;39.48;54.03;;
1754;Laerm;58380;48.312;9.246;2022-09-09T11:35:43;43.70;36.44;59.05;;
1754;Laerm;58380;48.312;9.246;2022-09-09T11:38:26;45.71;37.83;55.02;;
1754;Laerm;58380;48.312;9.246;2022-09-09T11:41:11;45.68;38.46;58.58;;
1754;Laerm;58380;48.312;9.246;2022-09-09T11:43:45;45.50;38.91;53.79;;
1754;Laerm;58380;48.312;9.246;2022-09-09T11:46:14;45.29;36.99;56.00;;
1754;Laerm;58380;48.312;9.246;2022-09-09T11:49:02;45.65;37.79;55.69;;
1754;Laerm;58380;48.312;9.246;2022-09-09T11:51:31;44.49;36.15;58.86;;
1754;Laerm;58380;48.312;9.246;2022-09-09T11:56:32;45.58;36.12;59.15;;
1754;Laerm;58380;48.312;9.246;2022-09-09T11:59:04;43.86;34.43;54.48;;
1754;Laerm;58380;48.312;9.246;2022-09-09T12:01:35;44.66;36.99;56.28;;
1754;Laerm;58380;48.312;9.246;2022-09-09T12:07:00;43.82;36.07;54.21;;
1754;Laerm;58380;48.312;9.246;2022-09-09T12:09:51;45.65;37.72;59.98;;
1754;Laerm;58380;48.312;9.246;2022-09-09T12:12:26;44.00;37.59;55.48;;
1754;Laerm;58380;48.312;9.246;2022-09-09T12:20:37;42.97;36.55;50.91;;
1754;Laerm;58380;48.312;9.246;2022-09-09T12:23:14;42.85;37.49;53.69;;
1754;Laerm;58380;48.312;9.246;2022-09-09T12:31:15;44.12;37.10;56.02;;
1754;Laerm;58380;48.312;9.246;2022-09-09T12:33:46;43.03;38.23;53.04;;
1754;Laerm;58380;48.312;9.246;2022-09-09T12:36:22;43.88;35.46;55.58;;
1754;Laerm;58380;48.312;9.246;2022-09-09T12:38:49;52.07;36.13;81.38;;
1754;Laerm;58380;48.312;9.246;2022-09-09T12:41:27;45.32;37.82;61.07;;
1754;Laerm;58380;48.312;9.246;2022-09-09T12:44:08;46.55;38.93;55.89;;
1754;Laerm;58380;48.312;9.246;2022-09-09T12:46:45;45.58;38.85;55.60;;
1754;Laerm;58380;48.312;9.246;2022-09-09T12:51:52;42.47;36.93;52.09;;
1754;Laerm;58380;48.312;9.246;2022-09-09T12:54:19;41.98;35.13;51.57;;
1754;Laerm;58380;48.312;9.246;2022-09-09T12:56:47;44.16;33.92;53.75;;
1754;Laerm;58380;48.312;9.246;2022-09-09T12:59:36;42.44;35.66;52.76;;
1754;Laerm;58380;48.312;9.246;2022-09-09T13:02:25;44.83;36.55;53.84;;
1754;Laerm;58380;48.312;9.246;2022-09-09T13:04:52;45.69;39.95;56.22;;
1754;Laerm;58380;48.312;9.246;2022-09-09T13:07:20;44.82;40.32;54.93;;
1754;Laerm;58380;48.312;9.246;2022-09-09T13:09:48;44.91;40.04;52.94;;
1754;Laerm;58380;48.312;9.246;2022-09-09T13:12:19;53.58;36.93;76.22;;
1754;Laerm;58380;48.312;9.246;2022-09-09T13:14:50;43.99;38.82;55.22;;
1754;Laerm;58380;48.312;9.246;2022-09-09T13:17:23;44.38;38.67;54.28;;
1754;Laerm;58380;48.312;9.246;2022-09-09T13:19:51;41.87;36.09;52.09;;
1754;Laerm;58380;48.312;9.246;2022-09-09T13:25:06;45.02;37.67;56.06;;
1754;Laerm;58380;48.312;9.246;2022-09-09T13:27:58;41.49;33.52;51.04;;
1754;Laerm;58380;48.312;9.246;2022-09-09T13:30:29;44.86;36.89;55.91;;
1754;Laerm;58380;48.312;9.246;2022-09-09T13:33:23;42.27;34.09;53.33;;
1754;Laerm;58380;48.312;9.246;2022-09-09T13:36:00;43.34;35.45;51.76;;
1754;Laerm;58380;48.312;9.246;2022-09-09T13:38:32;46.51;33.10;66.35;;
1754;Laerm;58380;48.312;9.246;2022-09-09T13:41:07;51.06;38.87;69.23;;
1754;Laerm;58380;48.312;9.246;2022-09-09T13:43:45;43.93;37.05;54.70;;
1754;Laerm;58380;48.312;9.246;2022-09-09T13:49:01;44.74;35.75;64.84;;
1754;Laerm;58380;48.312;9.246;2022-09-09T13:51:34;43.67;35.79;56.44;;
1754;Laerm;58380;48.312;9.246;2022-09-09T13:54:01;41.97;36.99;51.63;;
1754;Laerm;58380;48.312;9.246;2022-09-09T13:56:26;42.01;34.65;51.17;;
1754;Laerm;58380;48.312;9.246;2022-09-09T13:58:52;45.96;37.76;60.44;;
1754;Laerm;58380;48.312;9.246;2022-09-09T14:01:17;41.86;34.92;48.30;;
1754;Laerm;58380;48.312;9.246;2022-09-09T14:03:43;40.55;34.02;49.22;;
1754;Laerm;58380;48.312;9.246;2022-09-09T14:06:10;43.86;35.29;58.07;;
1754;Laerm;58380;48.312;9.246;2022-09-09T14:08:36;42.13;37.44;53.90;;
1754;Laerm;58380;48.312;9.246;2022-09-09T14:11:05;43.57;36.57;55.59;;
1754;Laerm;58380;48.312;9.246;2022-09-09T14:13:32;44.04;37.08;67.59;;
1754;Laerm;58380;48.312;9.246;2022-09-09T14:15:57;42.31;37.56;49.79;;
1754;Laerm;58380;48.312;9.246;2022-09-09T14:18:23;43.32;36.28;52.54;;
1754;Laerm;58380;48.312;9.246;2022-09-09T14:20:50;42.28;36.74;52.04;;
1754;Laerm;58380;48.312;9.246;2022-09-09T14:23:16;42.09;35.35;49.89;;
1754;Laerm;58380;48.312;9.246;2022-09-09T14:25:43;43.41;33.25;52.32;;
1754;Laerm;58380;48.312;9.246;2022-09-09T14:28:11;42.48;34.70;56.57;;
1754;Laerm;58380;48.312;9.246;2022-09-09T14:30:40;45.56;33.60;57.18;;
1754;Laerm;58380;48.312;9.246;2022-09-09T14:33:07;43.46;34.24;51.42;;
1754;Laerm;58380;48.312;9.246;2022-09-09T14:35:33;42.23;32.11;54.03;;
1754;Laerm;58380;48.312;9.246;2022-09-09T14:37:59;44.42;36.09;58.08;;
1754;Laerm;58380;48.312;9.246;2022-09-09T14:40:26;42.42;35.36;49.12;;
1754;Laerm;58380;48.312;9.246;2022-09-09T14:42:53;45.52;39.69;54.32;;
1754;Laerm;58380;48.312;9.246;2022-09-09T14:45:19;42.45;37.27;52.75;;
1754;Laerm;58380;48.312;9.246;2022-09-09T14:47:46;42.74;36.20;48.09;;
1754;Laerm;58380;48.312;9.246;2022-09-09T14:50:12;42.02;36.20;49.64;;
1754;Laerm;58380;48.312;9.246;2022-09-09T14:52:37;42.88;33.24;61.95;;
1754;Laerm;58380;48.312;9.246;2022-09-09T14:55:04;42.78;35.33;50.79;;
1754;Laerm;58380;48.312;9.246;2022-09-09T14:57:29;43.67;34.95;56.06;;
1754;Laerm;58380;48.312;9.246;2022-09-09T14:59:55;45.32;37.79;57.48;;
1754;Laerm;58380;48.312;9.246;2022-09-09T15:02:22;41.61;35.25;49.82;;
1754;Laerm;58380;48.312;9.246;2022-09-09T15:04:47;47.05;36.46;59.20;;
1754;Laerm;58380;48.312;9.246;2022-09-09T15:07:15;45.01;38.82;52.12;;
1754;Laerm;58380;48.312;9.246;2022-09-09T15:09:42;44.33;35.21;57.02;;
1754;Laerm;58380;48.312;9.246;2022-09-09T15:12:08;45.20;37.80;57.68;;
1754;Laerm;58380;48.312;9.246;2022-09-09T15:14:33;43.42;38.22;53.75;;
1754;Laerm;58380;48.312;9.246;2022-09-09T15:17:00;42.58;37.60;48.58;;
1754;Laerm;58380;48.312;9.246;2022-09-09T15:19:26;43.67;39.55;56.57;;
1754;Laerm;58380;48.312;9.246;2022-09-09T15:21:51;44.61;37.60;65.05;;
1754;Laerm;58380;48.312;9.246;2022-09-09T15:24:17;43.39;38.35;53.17;;
1754;Laerm;58380;48.312;9.246;2022-09-09T15:26:42;42.90;37.06;51.60;;
1754;Laerm;58380;48.312;9.246;2022-09-09T15:29:08;44.23;38.77;52.23;;
1754;Laerm;58380;48.312;9.246;2022-09-09T15:31:35;42.82;37.87;51.43;;
1754;Laerm;58380;48.312;9.246;2022-09-09T15:34:06;42.32;35.79;57.48;;
1754;Laerm;58380;48.312;9.246;2022-09-09T15:36:45;43.95;38.26;57.51;;
1754;Laerm;58380;48.312;9.246;2022-09-09T15:39:16;45.12;39.70;59.64;;
1754;Laerm;58380;48.312;9.246;2022-09-09T15:41:46;45.96;39.68;62.00;;
1754;Laerm;58380;48.312;9.246;2022-09-09T15:44:13;45.06;39.03;52.08;;
1754;Laerm;58380;48.312;9.246;2022-09-09T15:46:41;44.66;37.90;52.07;;
1754;Laerm;58380;48.312;9.246;2022-09-09T15:49:25;45.43;37.89;59.76;;
1754;Laerm;58380;48.312;9.246;2022-09-09T15:51:57;42.36;34.59;48.96;;
1754;Laerm;58380;48.312;9.246;2022-09-09T15:54:25;42.76;35.69;51.22;;
1754;Laerm;58380;48.312;9.246;2022-09-09T15:56:54;44.61;36.21;53.50;;
1754;Laerm;58380;48.312;9.246;2022-09-09T15:59:22;43.97;34.87;53.02;;
1754;Laerm;58380;48.312;9.246;2022-09-09T16:01:48;44.78;35.68;55.76;;
1754;Laerm;58380;48.312;9.246;2022-09-09T16:04:18;43.86;37.81;51.28;;
1754;Laerm;58380;48.312;9.246;2022-09-09T16:06:53;38.96;31.24;49.74;;
1754;Laerm;58380;48.312;9.246;2022-09-09T16:09:20;41.74;35.38;52.06;;
1754;Laerm;58380;48.312;9.246;2022-09-09T16:11:46;44.20;35.37;59.71;;
1754;Laerm;58380;48.312;9.246;2022-09-09T16:14:13;41.85;35.26;53.27;;
1754;Laerm;58380;48.312;9.246;2022-09-09T16:16:40;41.16;35.82;49.87;;
1754;Laerm;58380;48.312;9.246;2022-09-09T16:19:10;40.39;35.21;47.65;;
1754;Laerm;58380;48.312;9.246;2022-09-09T16:21:40;46.14;36.98;59.48;;
1754;Laerm;58380;48.312;9.246;2022-09-09T16:24:08;43.19;37.25;53.06;;
1754;Laerm;58380;48.312;9.246;2022-09-09T16:26:37;43.14;36.92;64.43;;
1754;Laerm;58380;48.312;9.246;2022-09-09T16:29:03;43.24;37.61;62.47;;
1754;Laerm;58380;48.312;9.246;2022-09-09T16:31:30;40.76;34.65;49.52;;
1754;Laerm;58380;48.312;9.246;2022-09-09T16:33:57;42.40;36.65;52.73;;
1754;Laerm;58380;48.312;9.246;2022-09-09T16:36:26;42.37;35.83;50.69;;
1754;Laerm;58380;48.312;9.246;2022-09-09T16:38:56;42.34;35.91;51.71;;
1754;Laerm;58380;48.312;9.246;2022-09-09T16:41:23;44.71;37.52;57.85;;
1754;Laerm;58380;48.312;9.246;2022-09-09T16:43:53;40.61;34.55;61.17;;
1754;Laerm;58380;48.312;9.246;2022-09-09T16:46:19;41.79;35.43;51.26;;
1754;Laerm;58380;48.312;9.246;2022-09-09T16:48:46;41.67;35.14;49.39;;
1754;Laerm;58380;48.312;9.246;2022-09-09T16:51:29;43.48;34.92;59.29;;
1754;Laerm;58380;48.312;9.246;2022-09-09T16:53:55;42.63;36.57;53.86;;
1754;Laerm;58380;48.312;9.246;2022-09-09T16:56:26;43.49;37.87;56.20;;
1754;Laerm;58380;48.312;9.246;2022-09-09T16:58:58;41.30;35.11;50.67;;
1754;Laerm;58380;48.312;9.246;2022-09-09T17:01:26;41.26;33.82;50.89;;
1754;Laerm;58380;48.312;9.246;2022-09-09T17:03:53;41.11;32.99;55.25;;
1754;Laerm;58380;48.312;9.246;2022-09-09T17:06:19;46.68;35.78;56.11;;
1754;Laerm;58380;48.312;9.246;2022-09-09T17:08:44;42.52;33.16;53.63;;
1754;Laerm;58380;48.312;9.246;2022-09-09T17:11:15;40.04;31.66;46.97;;
1754;Laerm;58380;48.312;9.246;2022-09-09T17:13:43;53.16;34.47;76.91;;
1754;Laerm;58380;48.312;9.246;2022-09-09T17:16:09;41.33;37.17;48.61;;
1754;Laerm;58380;48.312;9.246;2022-09-09T17:18:36;37.96;31.30;46.80;;
1754;Laerm;58380;48.312;9.246;2022-09-09T17:21:08;39.54;30.85;46.38;;
1754;Laerm;58380;48.312;9.246;2022-09-09T17:23:36;41.32;31.20;49.61;;
1754;Laerm;58380;48.312;9.246;2022-09-09T17:26:05;41.43;34.08;52.44;;
1754;Laerm;58380;48.312;9.246;2022-09-09T17:28:36;41.85;32.49;57.58;;
1754;Laerm;58380;48.312;9.246;2022-09-09T17:31:04;41.59;30.03;56.07;;
1754;Laerm;58380;48.312;9.246;2022-09-09T17:33:37;45.22;37.67;56.24;;
1754;Laerm;58380;48.312;9.246;2022-09-09T17:36:32;41.69;32.70;49.92;;
1754;Laerm;58380;48.312;9.246;2022-09-09T17:39:00;41.17;32.44;55.21;;
1754;Laerm;58380;48.312;9.246;2022-09-09T17:41:30;39.52;31.73;47.78;;
1754;Laerm;58380;48.312;9.246;2022-09-09T17:43:57;42.55;34.68;50.88;;
1754;Laerm;58380;48.312;9.246;2022-09-09T17:46:28;41.72;35.70;48.26;;
1754;Laerm;58380;48.312;9.246;2022-09-09T17:48:58;41.99;33.05;49.10;;
1754;Laerm;58380;48.312;9.246;2022-09-09T17:51:27;40.94;33.18;50.51;;
1754;Laerm;58380;48.312;9.246;2022-09-09T17:53:58;43.86;38.76;50.42;;
1754;Laerm;58380;48.312;9.246;2022-09-09T17:56:25;44.79;37.61;51.10;;
1754;Laerm;58380;48.312;9.246;2022-09-09T17:58:52;39.83;32.33;52.93;;
1754;Laerm;58380;48.312;9.246;2022-09-09T18:01:24;41.96;33.14;53.26;;
1754;Laerm;58380;48.312;9.246;2022-09-09T18:03:53;42.53;35.52;51.59;;
1754;Laerm;58380;48.312;9.246;2022-09-09T18:06:25;43.32;34.75;55.58;;
1754;Laerm;58380;48.312;9.246;2022-09-09T18:08:57;41.84;33.73;51.15;;
1754;Laerm;58380;48.312;9.246;2022-09-09T18:11:28;40.24;32.24;54.88;;
1754;Laerm;58380;48.312;9.246;2022-09-09T18:13:58;41.78;33.56;50.79;;
1754;Laerm;58380;48.312;9.246;2022-09-09T18:16:29;43.14;35.30;68.92;;
1754;Laerm;58380;48.312;9.246;2022-09-09T18:18:56;40.24;35.28;56.41;;
1754;Laerm;58380;48.312;9.246;2022-09-09T18:21:30;43.02;37.29;52.86;;
1754;Laerm;58380;48.312;9.246;2022-09-09T18:24:06;43.18;38.15;55.96;;
1754;Laerm;58380;48.312;9.246;2022-09-09T18:26:33;41.86;37.61;47.98;;
1754;Laerm;58380;48.312;9.246;2022-09-09T18:29:03;43.84;37.95;54.29;;
1754;Laerm;58380;48.312;9.246;2022-09-09T18:31:29;43.61;36.97;56.79;;
1754;Laerm;58380;48.312;9.246;2022-09-09T18:33:58;42.89;38.41;53.05;;
1754;Laerm;58380;48.312;9.246;2022-09-09T18:36:29;43.91;39.01;51.33;;
1754;Laerm;58380;48.312;9.246;2022-09-09T18:38:56;42.97;38.73;50.86;;
1754;Laerm;58380;48.312;9.246;2022-09-09T18:41:29;42.65;38.96;61.10;;
1754;Laerm;58380;48.312;9.246;2022-09-09T18:43:59;42.39;38.04;48.38;;
1754;Laerm;58380;48.312;9.246;2022-09-09T18:46:27;40.27;36.25;47.03;;
1754;Laerm;58380;48.312;9.246;2022-09-09T18:48:53;41.60;35.03;50.71;;
1754;Laerm;58380;48.312;9.246;2022-09-09T18:51:25;41.35;36.44;50.53;;
1754;Laerm;58380;48.312;9.246;2022-09-09T18:54:17;40.47;34.95;49.27;;
1754;Laerm;58380;48.312;9.246;2022-09-09T18:56:44;42.51;33.56;57.40;;
1754;Laerm;58380;48.312;9.246;2022-09-09T18:59:14;43.54;36.22;55.55;;
1754;Laerm;58380;48.312;9.246;2022-09-09T19:01:41;45.24;35.32;66.54;;
1754;Laerm;58380;48.312;9.246;2022-09-09T19:04:07;41.47;34.77;57.15;;
1754;Laerm;58380;48.312;9.246;2022-09-09T19:06:39;42.17;33.63;55.20;;
1754;Laerm;58380;48.312;9.246;2022-09-09T19:09:11;38.12;31.71;46.91;;
1754;Laerm;58380;48.312;9.246;2022-09-09T19:11:37;38.57;30.94;50.43;;
1754;Laerm;58380;48.312;9.246;2022-09-09T19:14:05;41.17;34.49;56.92;;
1754;Laerm;58380;48.312;9.246;2022-09-09T19:16:35;40.95;31.63;49.53;;
1754;Laerm;58380;48.312;9.246;2022-09-09T19:19:10;41.17;33.22;57.82;;
1754;Laerm;58380;48.312;9.246;2022-09-09T19:21:38;39.45;32.50;47.65;;
1754;Laerm;58380;48.312;9.246;2022-09-09T19:24:13;40.51;31.98;56.31;;
1754;Laerm;58380;48.312;9.246;2022-09-09T19:26:43;41.91;32.94;53.83;;
1754;Laerm;58380;48.312;9.246;2022-09-09T19:29:17;40.62;32.46;51.95;;
1754;Laerm;58380;48.312;9.246;2022-09-09T19:31:44;39.88;33.98;53.71;;
1754;Laerm;58380;48.312;9.246;2022-09-09T19:34:11;40.17;32.81;47.30;;
1754;Laerm;58380;48.312;9.246;2022-09-09T19:36:37;41.96;33.46;51.50;;
1754;Laerm;58380;48.312;9.246;2022-09-09T19:39:05;41.30;29.88;55.90;;
1754;Laerm;58380;48.312;9.246;2022-09-09T19:41:31;44.45;36.59;54.89;;
1754;Laerm;58380;48.312;9.246;2022-09-09T19:44:02;39.49;29.57;52.59;;
1754;Laerm;58380;48.312;9.246;2022-09-09T19:46:31;38.98;29.19;47.52;;
1754;Laerm;58380;48.312;9.246;2022-09-09T19:48:58;42.44;34.62;58.32;;
1754;Laerm;58380;48.312;9.246;2022-09-09T19:51:28;43.13;35.12;52.89;;
1754;Laerm;58380;48.312;9.246;2022-09-09T19:54:04;45.65;38.68;61.33;;
1754;Laerm;58380;48.312;9.246;2022-09-09T19:56:33;42.64;30.35;56.60;;
1754;Laerm;58380;48.312;9.246;2022-09-09T19:58:59;45.67;35.67;59.87;;
1754;Laerm;58380;48.312;9.246;2022-09-09T20:01:27;46.43;34.96;56.88;;
1754;Laerm;58380;48.312;9.246;2022-09-09T20:03:56;40.47;29.69;51.14;;
1754;Laerm;58380;48.312;9.246;2022-09-09T20:06:26;42.82;29.97;55.81;;
1754;Laerm;58380;48.312;9.246;2022-09-09T20:08:53;39.24;29.43;49.07;;
1754;Laerm;58380;48.312;9.246;2022-09-09T20:11:18;38.39;30.16;48.87;;
1754;Laerm;58380;48.312;9.246;2022-09-09T20:13:46;41.45;31.16;54.61;;
1754;Laerm;58380;48.312;9.246;2022-09-09T20:16:18;43.29;31.16;55.11;;
1754;Laerm;58380;48.312;9.246;2022-09-09T20:18:51;38.93;30.13;49.73;;
1754;Laerm;58380;48.312;9.246;2022-09-09T20:21:21;37.77;29.33;44.67;;
1754;Laerm;58380;48.312;9.246;2022-09-09T20:23:49;40.64;33.07;52.86;;
1754;Laerm;58380;48.312;9.246;2022-09-09T20:26:19;35.90;29.38;51.20;;
1754;Laerm;58380;48.312;9.246;2022-09-09T20:28:48;43.06;29.53;64.90;;
1754;Laerm;58380;48.312;9.246;2022-09-09T20:31:27;42.46;29.99;54.81;;
1754;Laerm;58380;48.312;9.246;2022-09-09T20:33:55;38.04;29.10;46.64;;
1754;Laerm;58380;48.312;9.246;2022-09-09T20:36:27;39.88;30.64;48.70;;
1754;Laerm;58380;48.312;9.246;2022-09-09T20:38:59;36.48;29.18;47.98;;
1754;Laerm;58380;48.312;9.246;2022-09-09T20:41:30;43.46;34.60;53.79;;
1754;Laerm;58380;48.312;9.246;2022-09-09T20:44:09;39.87;31.35;47.62;;
1754;Laerm;58380;48.312;9.246;2022-09-09T20:46:39;41.45;32.36;52.90;;
1754;Laerm;58380;48.312;9.246;2022-09-09T20:49:07;38.29;29.54;47.03;;
1754;Laerm;58380;48.312;9.246;2022-09-09T20:51:34;37.54;30.08;45.04;;
1754;Laerm;58380;48.312;9.246;2022-09-09T20:54:05;40.67;29.04;54.56;;
1754;Laerm;58380;48.312;9.246;2022-09-09T20:56:38;40.69;32.10;50.88;;
1754;Laerm;58380;48.312;9.246;2022-09-09T20:59:06;38.69;30.52;46.87;;
1754;Laerm;58380;48.312;9.246;2022-09-09T21:01:34;40.69;33.85;47.03;;
1754;Laerm;58380;48.312;9.246;2022-09-09T21:04:00;39.08;31.58;45.99;;
1754;Laerm;58380;48.312;9.246;2022-09-09T21:06:26;40.24;30.93;52.21;;
1754;Laerm;58380;48.312;9.246;2022-09-09T21:08:51;39.29;29.09;47.02;;
1754;Laerm;58380;48.312;9.246;2022-09-09T21:11:17;40.38;29.65;49.50;;
1754;Laerm;58380;48.312;9.246;2022-09-09T21:13:43;39.64;31.52;49.87;;
1754;Laerm;58380;48.312;9.246;2022-09-09T21:16:14;41.28;32.10;50.03;;
1754;Laerm;58380;48.312;9.246;2022-09-09T21:18:40;37.03;29.04;49.99;;
1754;Laerm;58380;48.312;9.246;2022-09-09T21:21:07;37.44;30.08;48.07;;
1754;Laerm;58380;48.312;9.246;2022-09-09T21:23:33;40.21;29.30;54.72;;
1754;Laerm;58380;48.312;9.246;2022-09-09T21:26:00;36.02;28.81;46.53;;
1754;Laerm;58380;48.312;9.246;2022-09-09T21:28:26;36.84;28.75;46.88;;
1754;Laerm;58380;48.312;9.246;2022-09-09T21:30:54;37.23;28.67;48.05;;
1754;Laerm;58380;48.312;9.246;2022-09-09T21:33:23;33.57;28.02;43.91;;
1754;Laerm;58380;48.312;9.246;2022-09-09T21:35:49;34.19;28.13;45.58;;
1754;Laerm;58380;48.312;9.246;2022-09-09T21:38:22;35.84;29.11;43.53;;
1754;Laerm;58380;48.312;9.246;2022-09-09T21:40:49;33.31;28.17;47.82;;
1754;Laerm;58380;48.312;9.246;2022-09-09T21:43:17;38.70;28.68;47.55;;
1754;Laerm;58380;48.312;9.246;2022-09-09T21:45:44;38.60;28.86;47.22;;
